Time,TemperatureF,DewpointF,PressureIn,WindDirection,WindDirectionDegrees,WindSpeedMPH,WindSpeedGustMPH,Humidity,HourlyPrecipIn,Conditions,Clouds,dailyrainin,SoftwareType,DateUTC
2013-08-04 00:02:00,61.2,53.2,30.03,WNW,292,0.0,0.0,75,0.00,CLR,FEW,0.00,WeatherDisplay:10.37,2013-08-04 07:02:00,
2013-08-04 00:07:00,61.0,52.6,30.03,WNW,292,0.0,0.0,74,0.00,CLR,FEW,0.00,WeatherDisplay:10.37,2013-08-04 07:07:00,
2013-08-04 00:12:00,60.6,52.6,30.03,WNW,292,0.0,0.0,75,0.00,CLR,FEW,0.00,WeatherDisplay:10.37,2013-08-04 07:12:00,
2013-08-04 00:17:00,60.4,52.5,30.03,WNW,292,0.0,0.0,75,0.00,CLR,FEW,0.00,WeatherDisplay:10.37,2013-08-04 07:17:00,
2013-08-04 00:22:00,60.4,52.5,30.03,WNW,292,0.0,0.0,75,0.00,CLR,FEW,0.00,WeatherDisplay:10.37,2013-08-04 07:22:00,
2013-08-04 00:27:00,59.7,51.8,30.03,WNW,292,0.0,0.0,75,0.00,CLR,FEW,0.00,WeatherDisplay:10.37,2013-08-04 07:27:00,
2013-08-04 00:32:00,59.5,51.6,30.03,WNW,292,0.0,0.0,75,0.00,CLR,FEW,0.00,WeatherDisplay:10.37,2013-08-04 07:32:00,
2013-08-04 00:37:00,59.4,51.8,30.03,WNW,292,0.0,0.0,76,0.00,CLR,FEW,0.00,WeatherDisplay:10.37,2013-08-04 07:37:00,
2013-08-04 00:42:00,59.0,51.4,30.03,WNW,292,0.0,0.0,76,0.00,CLR,FEW,0.00,WeatherDisplay:10.37,2013-08-04 07:42:00,
2013-08-04 00:47:00,58.8,51.3,30.03,WNW,292,0.0,0.0,76,0.00,CLR,FEW,0.00,WeatherDisplay:10.37,2013-08-04 07:47:00,
2013-08-04 00:52:00,58.8,51.3,30.03,WNW,292,0.0,0.0,76,0.00,CLR,FEW,0.00,WeatherDisplay:10.37,2013-08-04 07:52:00,
2013-08-04 00:57:00,58.8,51.3,30.03,WNW,292,0.0,0.0,76,0.00,CLR,FEW,0.00,WeatherDisplay:10.37,2013-08-04 07:57:00,
2013-08-04 01:02:00,58.8,51.6,30.04,WNW,292,0.0,0.0,77,0.00,CLR,FEW,0.00,WeatherDisplay:10.37,2013-08-04 08:02:00,
2013-08-04 01:07:00,58.3,51.1,30.04,WNW,292,0.0,0.0,77,0.00,CLR,FEW,0.00,WeatherDisplay:10.37,2013-08-04 08:07:00,
2013-08-04 01:12:00,58.1,50.9,30.04,WNW,292,0.0,0.0,77,0.00,CLR,FEW,0.00,WeatherDisplay:10.37,2013-08-04 08:12:00,
2013-08-04 01:17:00,58.3,51.1,30.04,WNW,292,0.0,0.0,77,0.00,CLR,FEW,0.00,WeatherDisplay:10.37,2013-08-04 08:17:00,
2013-08-04 01:22:00,58.3,51.1,30.04,WNW,292,0.0,0.0,77,0.00,CLR,FEW,0.00,WeatherDisplay:10.37,2013-08-04 08:22:00,
2013-08-04 01:27:00,58.3,51.4,30.04,WNW,292,0.0,0.0,78,0.00,CLR,FEW,0.00,WeatherDisplay:10.37,2013-08-04 08:27:00,
2013-08-04 01:32:00,58.3,51.4,30.04,WNW,292,0.0,0.0,78,0.00,CLR,FEW,0.00,WeatherDisplay:10.37,2013-08-04 08:32:00,
2013-08-04 01:37:00,57.9,51.1,30.04,WNW,292,0.0,0.0,78,0.00,CLR,FEW,0.00,WeatherDisplay:10.37,2013-08-04 08:37:00,
2013-08-04 01:42:00,57.9,51.1,30.04,WNW,292,0.0,0.0,78,0.00,CLR,FEW,0.00,WeatherDisplay:10.37,2013-08-04 08:42:00,
2013-08-04 01:47:00,57.7,50.9,30.03,WNW,292,0.0,0.0,78,0.00,CLR,FEW,0.00,WeatherDisplay:10.37,2013-08-04 08:47:00,
2013-08-04 01:52:00,57.4,50.6,30.04,WNW,292,0.0,0.0,78,0.00,CLR,FEW,0.00,WeatherDisplay:10.37,2013-08-04 08:52:00,
2013-08-04 01:57:00,57.4,50.6,30.04,WNW,292,0.0,0.0,78,0.00,CLR,FEW,0.00,WeatherDisplay:10.37,2013-08-04 08:57:00,
2013-08-04 02:02:00,57.4,50.6,30.04,WNW,292,0.0,0.0,78,0.00,CLR,FEW,0.00,WeatherDisplay:10.37,2013-08-04 09:02:00,
2013-08-04 02:07:00,56.8,50.1,30.04,WNW,292,0.0,0.0,78,0.00,CLR,FEW,0.00,WeatherDisplay:10.37,2013-08-04 09:07:00,
2013-08-04 02:12:00,56.8,50.1,30.04,WNW,292,0.0,0.0,78,0.00,CLR,FEW,0.00,WeatherDisplay:10.37,2013-08-04 09:12:00,
2013-08-04 02:17:00,56.8,50.1,30.04,WNW,292,0.0,0.0,78,0.00,CLR,FEW,0.00,WeatherDisplay:10.37,2013-08-04 09:17:00,
2013-08-04 02:22:00,56.8,50.4,30.04,WNW,292,0.0,0.0,79,0.00,CLR,FEW,0.00,WeatherDisplay:10.37,2013-08-04 09:22:00,
2013-08-04 02:27:00,56.5,50.0,30.04,WNW,292,0.0,0.0,79,0.00,CLR,FEW,0.00,WeatherDisplay:10.37,2013-08-04 09:27:00,
2013-08-04 02:32:00,56.5,50.0,30.04,WNW,292,0.0,0.0,79,0.00,CLR,FEW,0.00,WeatherDisplay:10.37,2013-08-04 09:32:00,
2013-08-04 02:37:00,56.3,49.9,30.04,WNW,292,0.0,0.0,79,0.00,CLR,FEW,0.00,WeatherDisplay:10.37,2013-08-04 09:37:00,
2013-08-04 02:42:00,56.1,49.7,30.04,WNW,292,0.0,0.0,79,0.00,CLR,FEW,0.00,WeatherDisplay:10.37,2013-08-04 09:42:00,
2013-08-04 02:47:00,55.9,49.5,30.04,WNW,292,0.0,0.0,79,0.00,CLR,FEW,0.00,WeatherDisplay:10.37,2013-08-04 09:47:00,
2013-08-04 02:52:00,55.9,49.9,30.03,WNW,292,0.0,0.0,80,0.00,CLR,FEW,0.00,WeatherDisplay:10.37,2013-08-04 09:52:00,
2013-08-04 02:57:00,55.9,49.9,30.04,WNW,292,0.0,0.0,80,0.00,CLR,FEW,0.00,WeatherDisplay:10.37,2013-08-04 09:57:00,
2013-08-04 03:02:00,55.9,49.9,30.04,WNW,292,0.0,0.0,80,0.00,CLR,FEW,0.00,WeatherDisplay:10.37,2013-08-04 10:02:00,
2013-08-04 03:07:00,55.6,49.5,30.04,WNW,292,0.0,0.0,80,0.00,CLR,FEW,0.00,WeatherDisplay:10.37,2013-08-04 10:07:00,
2013-08-04 03:12:00,55.4,49.3,30.04,WNW,292,0.0,0.0,80,0.00,CLR,FEW,0.00,WeatherDisplay:10.37,2013-08-04 10:12:00,
2013-08-04 03:17:00,55.2,49.2,30.04,WNW,292,0.0,0.0,80,0.00,CLR,FEW,0.00,WeatherDisplay:10.37,2013-08-04 10:17:00,
2013-08-04 03:22:00,55.2,49.5,30.04,WNW,292,0.0,0.0,81,0.00,CLR,FEW,0.00,WeatherDisplay:10.37,2013-08-04 10:22:00,
2013-08-04 03:27:00,55.2,49.5,30.04,WNW,292,0.0,0.0,81,0.00,CLR,FEW,0.00,WeatherDisplay:10.37,2013-08-04 10:27:00,
2013-08-04 03:32:00,55.2,49.5,30.04,WNW,292,0.0,0.0,81,0.00,CLR,FEW,0.00,WeatherDisplay:10.37,2013-08-04 10:32:00,
2013-08-04 03:37:00,54.9,49.1,30.04,WNW,292,0.0,0.0,81,0.00,CLR,FEW,0.00,WeatherDisplay:10.37,2013-08-04 10:37:00,
2013-08-04 03:42:00,54.9,49.1,30.04,WNW,292,0.0,0.0,81,0.00,CLR,FEW,0.00,WeatherDisplay:10.37,2013-08-04 10:42:00,
2013-08-04 03:47:00,54.7,49.0,30.04,WNW,292,0.0,0.0,81,0.00,CLR,FEW,0.00,WeatherDisplay:10.37,2013-08-04 10:47:00,
2013-08-04 03:52:00,54.5,48.8,30.04,WNW,292,0.0,0.0,81,0.00,CLR,FEW,0.00,WeatherDisplay:10.37,2013-08-04 10:52:00,
2013-08-04 03:57:00,54.5,48.8,30.04,WNW,292,0.0,0.0,81,0.00,CLR,FEW,0.00,WeatherDisplay:10.37,2013-08-04 10:57:00,
2013-08-04 04:02:00,54.3,48.6,30.04,WNW,292,0.0,0.0,81,0.00,CLR,FEW,0.00,WeatherDisplay:10.37,2013-08-04 11:02:00,
2013-08-04 04:07:00,54.3,48.6,30.04,WNW,292,0.0,0.0,81,0.00,CLR,FEW,0.00,WeatherDisplay:10.37,2013-08-04 11:07:00,
2013-08-04 04:12:00,54.1,48.4,30.04,WNW,292,0.0,0.0,81,0.00,CLR,FEW,0.00,WeatherDisplay:10.37,2013-08-04 11:12:00,
2013-08-04 04:17:00,54.1,48.8,30.04,WNW,292,0.0,0.0,82,0.00,CLR,FEW,0.00,WeatherDisplay:10.37,2013-08-04 11:17:00,
2013-08-04 04:22:00,54.0,48.6,30.04,WNW,292,0.0,0.0,82,0.00,CLR,FEW,0.00,WeatherDisplay:10.37,2013-08-04 11:22:00,
2013-08-04 04:27:00,53.8,48.4,30.04,WNW,292,0.0,0.0,82,0.00,CLR,FEW,0.00,WeatherDisplay:10.37,2013-08-04 11:27:00,
2013-08-04 04:32:00,53.8,48.4,30.05,WNW,292,0.0,0.0,82,0.00,CLR,FEW,0.00,WeatherDisplay:10.37,2013-08-04 11:32:00,
2013-08-04 04:37:00,53.6,48.2,30.05,WNW,292,0.0,0.0,82,0.00,CLR,FEW,0.00,WeatherDisplay:10.37,2013-08-04 11:37:00,
2013-08-04 04:42:00,53.4,48.1,30.05,WNW,292,0.0,0.0,82,0.00,CLR,FEW,0.00,WeatherDisplay:10.37,2013-08-04 11:42:00,
2013-08-04 04:47:00,53.4,48.1,30.05,WNW,292,0.0,0.0,82,0.00,CLR,FEW,0.00,WeatherDisplay:10.37,2013-08-04 11:47:00,
2013-08-04 04:52:00,53.4,48.1,30.05,WNW,292,0.0,0.0,82,0.00,CLR,FEW,0.00,WeatherDisplay:10.37,2013-08-04 11:52:00,
2013-08-04 04:57:00,53.4,48.1,30.05,WNW,292,0.0,0.0,82,0.00,CLR,FEW,0.00,WeatherDisplay:10.37,2013-08-04 11:57:00,
2013-08-04 05:02:00,53.4,48.4,30.05,WNW,292,0.0,0.0,83,0.00,CLR,FEW,0.00,WeatherDisplay:10.37,2013-08-04 12:02:00,
2013-08-04 05:07:00,53.2,48.2,30.05,WNW,292,0.0,0.0,83,0.00,CLR,FEW,0.00,WeatherDisplay:10.37,2013-08-04 12:07:00,
2013-08-04 05:12:00,53.2,48.2,30.05,WNW,292,0.0,0.0,83,0.00,CLR,FEW,0.00,WeatherDisplay:10.37,2013-08-04 12:12:00,
2013-08-04 05:17:00,52.9,47.9,30.05,WNW,292,0.0,0.0,83,0.00,CLR,FEW,0.00,WeatherDisplay:10.37,2013-08-04 12:17:00,
2013-08-04 05:22:00,52.7,47.7,30.05,WNW,292,0.0,0.0,83,0.00,CLR,FEW,0.00,WeatherDisplay:10.37,2013-08-04 12:22:00,
2013-08-04 05:27:00,52.5,47.5,30.05,WNW,292,0.0,0.0,83,0.00,CLR,FEW,0.00,WeatherDisplay:10.37,2013-08-04 12:27:00,
2013-08-04 05:32:00,52.5,47.5,30.05,WNW,292,0.0,0.0,83,0.00,CLR,FEW,0.00,WeatherDisplay:10.37,2013-08-04 12:32:00,
2013-08-04 05:37:00,52.3,47.3,30.06,WNW,292,0.0,0.0,83,0.00,CLR,FEW,0.00,WeatherDisplay:10.37,2013-08-04 12:37:00,
2013-08-04 05:42:00,52.3,47.3,30.06,WNW,292,0.0,0.0,83,0.00,CLR,FEW,0.00,WeatherDisplay:10.37,2013-08-04 12:42:00,
2013-08-04 05:47:00,52.5,47.5,30.06,WNW,292,0.0,0.0,83,0.00,CLR,FEW,0.00,WeatherDisplay:10.37,2013-08-04 12:47:00,
2013-08-04 05:52:00,52.5,47.5,30.06,WNW,292,0.0,0.0,83,0.00,CLR,FEW,0.00,WeatherDisplay:10.37,2013-08-04 12:52:00,
2013-08-04 05:57:00,52.5,47.5,30.06,WNW,292,0.0,0.0,83,0.00,CLR,FEW,0.00,WeatherDisplay:10.37,2013-08-04 12:57:00,
2013-08-04 06:02:00,52.5,47.5,30.06,WNW,292,0.0,0.0,83,0.00,CLR,FEW,0.00,WeatherDisplay:10.37,2013-08-04 13:02:00,
2013-08-04 06:07:00,52.5,47.5,30.06,WNW,292,0.0,0.0,83,0.00,CLR,FEW,0.00,WeatherDisplay:10.37,2013-08-04 13:07:00,
2013-08-04 06:13:00,52.7,47.7,30.07,WNW,292,0.0,0.0,83,0.00,CLR,FEW,0.00,WeatherDisplay:10.37,2013-08-04 13:13:00,
2013-08-04 06:18:00,52.7,47.7,30.07,WNW,292,0.0,0.0,83,0.00,CLR,FEW,0.00,WeatherDisplay:10.37,2013-08-04 13:18:00,
2013-08-04 06:23:00,52.9,47.9,30.07,WNW,292,0.0,0.0,83,0.00,CLR,FEW,0.00,WeatherDisplay:10.37,2013-08-04 13:23:00,
2013-08-04 06:28:00,52.9,47.9,30.06,WNW,292,0.0,0.0,83,0.00,CLR,FEW,0.00,WeatherDisplay:10.37,2013-08-04 13:28:00,
2013-08-04 06:33:00,52.9,47.9,30.06,WNW,292,0.0,0.0,83,0.00,CLR,FEW,0.00,WeatherDisplay:10.37,2013-08-04 13:33:00,
2013-08-04 06:38:00,54.1,49.4,30.07,WNW,292,0.0,0.0,84,0.00,CLR,FEW,0.00,WeatherDisplay:10.37,2013-08-04 13:38:00,
2013-08-04 06:43:00,56.5,51.4,30.07,WNW,292,0.0,0.0,83,0.00,CLR,FEW,0.00,WeatherDisplay:10.37,2013-08-04 13:43:00,
2013-08-04 06:55:00,63.3,56.3,30.07,WNW,292,0.0,0.0,78,0.00,CLR,FEW,0.00,WeatherDisplay:10.37,2013-08-04 13:55:00,
2013-08-04 07:00:00,64.4,56.3,30.07,WNW,292,0.0,0.0,75,0.00,CLR,FEW,0.00,WeatherDisplay:10.37,2013-08-04 14:00:00,
2013-08-04 07:05:00,68.5,58.4,30.07,WNW,292,0.0,0.0,70,0.00,CLR,FEW,0.00,WeatherDisplay:10.37,2013-08-04 14:05:00,
2013-08-04 07:10:00,70.9,59.0,30.07,WNW,292,0.0,0.0,66,0.00,CLR,FEW,0.00,WeatherDisplay:10.37,2013-08-04 14:10:00,
2013-08-04 07:15:00,73.9,60.5,30.07,WNW,292,0.0,0.0,63,0.00,CLR,FEW,0.00,WeatherDisplay:10.37,2013-08-04 14:15:00,
2013-08-04 07:20:00,75.7,60.9,30.07,WNW,292,0.0,0.0,60,0.00,CLR,FEW,0.00,WeatherDisplay:10.37,2013-08-04 14:20:00,
2013-08-04 07:25:00,77.0,60.1,30.07,WNW,292,0.0,0.0,56,0.00,CLR,FEW,0.00,WeatherDisplay:10.37,2013-08-04 14:25:00,
2013-08-04 07:30:00,78.6,60.1,30.07,WNW,292,0.0,0.0,53,0.00,CLR,FEW,0.00,WeatherDisplay:10.37,2013-08-04 14:30:00,
2013-08-04 07:42:00,79.7,58.8,30.07,WNW,292,0.0,0.0,49,0.00,CLR,FEW,0.00,WeatherDisplay:10.37,2013-08-04 14:42:00,
2013-08-04 07:47:00,79.7,58.8,30.06,WNW,292,0.0,0.0,49,0.00,CLR,FEW,0.00,WeatherDisplay:10.37,2013-08-04 14:47:00,
2013-08-04 07:52:00,80.1,58.6,30.07,WNW,292,0.0,0.0,48,0.00,CLR,FEW,0.00,WeatherDisplay:10.37,2013-08-04 14:52:00,
2013-08-04 07:57:00,78.4,57.1,30.07,SSW,202,0.0,0.0,48,0.00,CLR,FEW,0.00,WeatherDisplay:10.37,2013-08-04 14:57:00,
2013-08-04 08:01:00,76.8,56.8,30.06,SSW,202,0.0,0.0,50,0.00,CLR,FEW,0.00,WeatherDisplay:10.37,2013-08-04 15:01:00,
2013-08-04 08:07:00,75.4,54.9,30.06,South,180,0.0,0.0,49,0.00,CLR,FEW,0.00,WeatherDisplay:10.37,2013-08-04 15:07:00,
2013-08-04 08:12:00,73.8,55.0,30.06,SSE,158,0.0,0.0,52,0.00,CLR,FEW,0.00,WeatherDisplay:10.37,2013-08-04 15:12:00,
2013-08-04 08:17:00,72.1,54.6,30.06,ESE,112,0.0,0.0,54,0.00,CLR,FEW,0.00,WeatherDisplay:10.37,2013-08-04 15:17:00,
2013-08-04 08:22:00,69.8,53.4,30.06,ESE,112,0.0,0.0,56,0.00,CLR,FEW,0.00,WeatherDisplay:10.37,2013-08-04 15:22:00,
2013-08-04 08:27:00,69.4,54.0,30.06,ESE,112,0.0,0.0,58,0.00,CLR,FEW,0.00,WeatherDisplay:10.37,2013-08-04 15:27:00,
2013-08-04 08:32:00,69.8,54.4,30.06,ESE,112,0.0,0.0,58,0.00,CLR,FEW,0.00,WeatherDisplay:10.37,2013-08-04 15:32:00,
2013-08-04 08:37:00,70.0,54.5,30.06,ESE,112,0.0,0.0,58,0.00,CLR,FEW,0.00,WeatherDisplay:10.37,2013-08-04 15:37:00,
2013-08-04 08:42:00,70.9,55.4,30.05,ESE,112,0.0,0.0,58,0.00,CLR,FEW,0.00,WeatherDisplay:10.37,2013-08-04 15:42:00,
2013-08-04 08:47:00,71.2,55.7,30.05,ESE,112,0.0,0.0,58,0.00,CLR,FEW,0.00,WeatherDisplay:10.37,2013-08-04 15:47:00,
2013-08-04 08:52:00,71.2,55.2,30.05,ESE,112,0.0,0.0,57,0.00,CLR,FEW,0.00,WeatherDisplay:10.37,2013-08-04 15:52:00,
2013-08-04 08:57:00,71.2,55.2,30.05,ESE,112,0.0,0.0,57,0.00,CLR,FEW,0.00,WeatherDisplay:10.37,2013-08-04 15:57:00,
2013-08-04 09:02:00,71.8,55.7,30.05,ESE,112,0.0,0.0,57,0.00,CLR,FEW,0.00,WeatherDisplay:10.37,2013-08-04 16:02:00,
2013-08-04 09:07:00,72.7,56.1,30.04,ESE,112,0.0,0.0,56,0.00,CLR,FEW,0.00,WeatherDisplay:10.37,2013-08-04 16:07:00,
2013-08-04 09:12:00,73.0,55.9,30.04,ENE,68,0.0,0.0,55,0.00,CLR,FEW,0.00,WeatherDisplay:10.37,2013-08-04 16:12:00,
2013-08-04 09:17:00,73.4,55.7,30.04,ENE,68,0.0,0.0,54,0.00,CLR,FEW,0.00,WeatherDisplay:10.37,2013-08-04 16:17:00,
2013-08-04 09:22:00,73.0,55.9,30.04,ENE,68,0.0,0.0,55,0.00,CLR,FEW,0.00,WeatherDisplay:10.37,2013-08-04 16:22:00,
2013-08-04 09:27:00,73.4,55.7,30.04,NNW,338,0.0,0.0,54,0.00,CLR,FEW,0.00,WeatherDisplay:10.37,2013-08-04 16:27:00,
2013-08-04 09:32:00,73.6,55.9,30.04,North,0,0.0,0.0,54,0.00,CLR,FEW,0.00,WeatherDisplay:10.37,2013-08-04 16:32:00,
2013-08-04 09:37:00,74.1,55.9,30.04,NNE,22,0.0,0.0,53,0.00,CLR,FEW,0.00,WeatherDisplay:10.37,2013-08-04 16:37:00,
2013-08-04 09:42:00,74.8,56.6,30.04,NNE,22,0.0,0.0,53,0.00,CLR,FEW,0.00,WeatherDisplay:10.37,2013-08-04 16:42:00,
2013-08-04 09:47:00,75.0,56.2,30.03,East,90,0.0,0.0,52,0.00,CLR,FEW,0.00,WeatherDisplay:10.37,2013-08-04 16:47:00,
2013-08-04 09:52:00,74.7,55.9,30.03,ESE,112,0.0,0.0,52,0.00,CLR,FEW,0.00,WeatherDisplay:10.37,2013-08-04 16:52:00,
2013-08-04 09:57:00,74.5,55.7,30.03,ESE,112,0.0,0.0,52,0.00,CLR,FEW,0.00,WeatherDisplay:10.37,2013-08-04 16:57:00,
2013-08-04 10:02:00,74.8,56.0,30.03,ESE,112,0.0,0.0,52,0.00,CLR,FEW,0.00,WeatherDisplay:10.37,2013-08-04 17:02:00,
2013-08-04 10:07:00,75.0,56.2,30.03,ENE,68,0.0,0.0,52,0.00,CLR,FEW,0.00,WeatherDisplay:10.37,2013-08-04 17:07:00,
2013-08-04 10:12:00,75.0,56.2,30.03,ENE,68,0.0,0.0,52,0.00,CLR,FEW,0.00,WeatherDisplay:10.37,2013-08-04 17:12:00,
2013-08-04 10:17:00,75.6,56.7,30.03,East,90,0.0,0.0,52,0.00,CLR,FEW,0.00,WeatherDisplay:10.37,2013-08-04 17:17:00,
2013-08-04 10:22:00,75.7,56.3,30.03,ESE,112,0.0,0.0,51,0.00,CLR,FEW,0.00,WeatherDisplay:10.37,2013-08-04 17:22:00,
2013-08-04 10:27:00,75.9,57.0,30.02,ESE,112,0.0,0.0,52,0.00,CLR,FEW,0.00,WeatherDisplay:10.37,2013-08-04 17:27:00,
2013-08-04 10:32:00,76.1,56.1,30.02,East,90,0.0,0.0,50,0.00,CLR,FEW,0.00,WeatherDisplay:10.37,2013-08-04 17:32:00,
2013-08-04 10:37:00,76.8,56.8,30.02,ESE,112,0.0,0.0,50,0.00,CLR,FEW,0.00,WeatherDisplay:10.37,2013-08-04 17:37:00,
2013-08-04 10:42:00,77.5,56.9,30.02,East,90,0.0,0.0,49,0.00,CLR,FEW,0.00,WeatherDisplay:10.37,2013-08-04 17:42:00,
2013-08-04 10:47:00,77.7,57.0,30.02,ESE,112,0.0,0.0,49,0.00,CLR,FEW,0.00,WeatherDisplay:10.37,2013-08-04 17:47:00,
2013-08-04 10:52:00,78.6,57.9,30.01,ENE,68,0.0,0.0,49,0.00,CLR,FEW,0.00,WeatherDisplay:10.37,2013-08-04 17:52:00,
2013-08-04 10:57:00,79.3,58.5,30.01,East,90,0.0,0.0,49,0.00,CLR,FEW,0.00,WeatherDisplay:10.37,2013-08-04 17:57:00,
2013-08-04 11:02:00,80.1,58.6,30.01,NE,45,0.0,0.0,48,0.00,CLR,FEW,0.00,WeatherDisplay:10.37,2013-08-04 18:02:00,
2013-08-04 11:07:00,80.8,58.7,30.01,ENE,68,0.0,0.0,47,0.00,CLR,FEW,0.00,WeatherDisplay:10.37,2013-08-04 18:07:00,
2013-08-04 11:12:00,81.0,58.8,30.01,East,90,0.0,0.0,47,0.00,CLR,FEW,0.00,WeatherDisplay:10.37,2013-08-04 18:12:00,
2013-08-04 11:17:00,81.0,58.2,30.01,East,90,0.0,0.0,46,0.00,CLR,FEW,0.00,WeatherDisplay:10.37,2013-08-04 18:17:00,
2013-08-04 11:22:00,81.3,58.6,30.00,ENE,68,0.0,0.0,46,0.00,CLR,FEW,0.00,WeatherDisplay:10.37,2013-08-04 18:22:00,
2013-08-04 11:27:00,81.7,58.3,30.00,ENE,68,0.0,0.0,45,0.00,CLR,FEW,0.00,WeatherDisplay:10.37,2013-08-04 18:27:00,
2013-08-04 11:32:00,81.5,58.1,30.00,ENE,68,0.0,0.0,45,0.00,CLR,FEW,0.00,WeatherDisplay:10.37,2013-08-04 18:32:00,
2013-08-04 11:37:00,82.6,59.1,30.00,ENE,68,0.0,0.0,45,0.00,CLR,FEW,0.00,WeatherDisplay:10.37,2013-08-04 18:37:00,
2013-08-04 11:42:00,83.7,58.8,30.00,ENE,68,0.0,0.0,43,0.00,CLR,FEW,0.00,WeatherDisplay:10.37,2013-08-04 18:42:00,
2013-08-04 11:47:00,84.6,59.6,29.99,SSE,158,0.0,0.0,43,0.00,CLR,FEW,0.00,WeatherDisplay:10.37,2013-08-04 18:47:00,
2013-08-04 11:52:00,85.1,58.8,29.99,SSW,202,2.5,2.5,41,0.00,CLR,FEW,0.00,WeatherDisplay:10.37,2013-08-04 18:52:00,
2013-08-04 11:57:00,85.6,59.9,29.99,South,180,0.0,0.0,42,0.00,CLR,FEW,0.00,WeatherDisplay:10.37,2013-08-04 18:57:00,
2013-08-04 12:02:00,85.8,60.1,29.99,South,180,0.0,0.0,42,0.00,CLR,FEW,0.00,WeatherDisplay:10.37,2013-08-04 19:02:00,
2013-08-04 12:07:00,86.2,58.3,29.99,SSE,158,0.0,0.0,39,0.00,CLR,FEW,0.00,WeatherDisplay:10.37,2013-08-04 19:07:00,
2013-08-04 12:12:00,86.2,58.3,29.98,SSE,158,0.0,0.0,39,0.00,CLR,FEW,0.00,WeatherDisplay:10.37,2013-08-04 19:12:00,
2013-08-04 12:17:00,86.2,58.3,29.98,SSE,158,0.0,0.0,39,0.00,CLR,FEW,0.00,WeatherDisplay:10.37,2013-08-04 19:17:00,
2013-08-04 12:22:00,86.2,58.3,29.98,East,90,0.0,0.0,39,0.00,CLR,FEW,0.00,WeatherDisplay:10.37,2013-08-04 19:22:00,
2013-08-04 12:27:00,86.4,58.5,29.98,East,90,0.0,0.0,39,0.00,CLR,FEW,0.00,WeatherDisplay:10.37,2013-08-04 19:27:00,
2013-08-04 12:32:00,87.1,58.4,29.98,SE,135,0.0,0.0,38,0.00,CLR,FEW,0.00,WeatherDisplay:10.37,2013-08-04 19:32:00,
2013-08-04 12:37:00,87.4,58.0,29.97,SE,135,0.0,0.0,37,0.00,CLR,FEW,0.00,WeatherDisplay:10.37,2013-08-04 19:37:00,
2013-08-04 12:42:00,87.4,57.2,29.98,South,180,0.0,0.0,36,0.00,CLR,FEW,0.00,WeatherDisplay:10.37,2013-08-04 19:42:00,
2013-08-04 12:47:00,88.0,57.7,29.97,SSE,158,0.0,0.0,36,0.00,CLR,FEW,0.00,WeatherDisplay:10.37,2013-08-04 19:47:00,
2013-08-04 12:52:00,88.0,56.9,29.97,NNE,22,1.1,1.1,35,0.00,CLR,FEW,0.00,WeatherDisplay:10.37,2013-08-04 19:52:00,
2013-08-04 12:57:00,88.2,57.1,29.97,ENE,68,1.1,1.1,35,0.00,CLR,FEW,0.00,WeatherDisplay:10.37,2013-08-04 19:57:00,
2013-08-04 13:02:00,88.3,55.6,29.97,ESE,112,0.0,0.0,33,0.00,CLR,FEW,0.00,WeatherDisplay:10.37,2013-08-04 20:02:00,
2013-08-04 13:07:00,88.5,54.9,29.97,ENE,68,0.0,0.0,32,0.00,CLR,FEW,0.00,WeatherDisplay:10.37,2013-08-04 20:07:00,
2013-08-04 13:12:00,88.9,55.2,29.97,NE,45,1.1,1.1,32,0.00,CLR,FEW,0.00,WeatherDisplay:10.37,2013-08-04 20:12:00,
2013-08-04 13:17:00,89.8,55.1,29.96,NW,315,3.5,3.5,31,0.00,CLR,FEW,0.00,WeatherDisplay:10.37,2013-08-04 20:17:00,
2013-08-04 13:22:00,90.0,53.4,29.97,NNW,338,4.0,4.0,29,0.00,CLR,FEW,0.00,WeatherDisplay:10.37,2013-08-04 20:22:00,
2013-08-04 13:27:00,90.1,53.6,29.97,NNE,22,0.0,0.0,29,0.00,CLR,FEW,0.00,WeatherDisplay:10.37,2013-08-04 20:27:00,
2013-08-04 13:32:00,90.0,53.4,29.97,North,0,3.5,3.5,29,0.00,CLR,FEW,0.00,WeatherDisplay:10.37,2013-08-04 20:32:00,
2013-08-04 13:37:00,89.8,53.3,29.97,NNE,22,0.0,0.0,29,0.00,CLR,FEW,0.00,WeatherDisplay:10.37,2013-08-04 20:37:00,
2013-08-04 13:43:00,90.1,53.6,29.96,NW,315,3.5,4.0,29,0.00,CLR,FEW,0.00,WeatherDisplay:10.37,2013-08-04 20:43:00,
2013-08-04 13:48:00,90.1,53.6,29.96,WNW,292,4.6,4.6,29,0.00,CLR,FEW,0.00,WeatherDisplay:10.37,2013-08-04 20:48:00,
2013-08-04 13:52:00,90.1,53.6,29.95,WSW,248,0.0,0.0,29,0.00,CLR,FEW,0.00,WeatherDisplay:10.37,2013-08-04 20:52:00,
2013-08-04 13:58:00,90.5,53.9,29.96,NW,315,8.1,8.1,29,0.00,CLR,FEW,0.00,WeatherDisplay:10.37,2013-08-04 20:58:00,
2013-08-04 14:03:00,90.3,53.7,29.95,NE,45,7.2,7.2,29,0.00,CLR,FEW,0.00,WeatherDisplay:10.37,2013-08-04 21:03:00,
2013-08-04 14:08:00,90.3,52.8,29.95,WNW,292,0.0,0.0,28,0.00,CLR,FEW,0.00,WeatherDisplay:10.37,2013-08-04 21:08:00,
2013-08-04 14:13:00,90.7,54.1,29.95,WNW,292,0.0,0.0,29,0.00,CLR,FEW,0.00,WeatherDisplay:10.37,2013-08-04 21:13:00,
2013-08-04 14:18:00,90.7,54.1,29.95,North,0,0.0,0.0,29,0.00,CLR,FEW,0.00,WeatherDisplay:10.37,2013-08-04 21:18:00,
2013-08-04 14:23:00,90.9,54.2,29.95,NW,315,0.0,0.0,29,0.00,CLR,FEW,0.00,WeatherDisplay:10.37,2013-08-04 21:23:00,
2013-08-04 14:28:00,91.0,53.4,29.94,SW,225,0.0,0.0,28,0.00,CLR,FEW,0.00,WeatherDisplay:10.37,2013-08-04 21:28:00,
2013-08-04 14:32:00,91.2,55.5,29.95,South,180,6.9,6.9,30,0.00,CLR,FEW,0.00,WeatherDisplay:10.37,2013-08-04 21:32:00,
2013-08-04 14:38:00,91.4,54.7,29.94,South,180,6.9,6.9,29,0.00,CLR,FEW,0.00,WeatherDisplay:10.37,2013-08-04 21:38:00,
2013-08-04 14:42:00,91.2,53.6,29.94,SSE,158,27.5,27.5,28,0.00,CLR,FEW,0.00,WeatherDisplay:10.37,2013-08-04 21:42:00,
2013-08-04 14:47:00,91.2,55.5,29.94,NNW,338,0.0,0.0,30,0.00,CLR,FEW,0.00,WeatherDisplay:10.37,2013-08-04 21:47:00,
2013-08-04 14:49:00,91.2,55.5,29.94,NNW,338,0.0,0.0,30,0.00,CLR,FEW,0.00,WeatherDisplay:10.37,2013-08-04 21:49:00,
2013-08-04 14:54:00,91.0,55.3,29.93,NNW,338,4.6,4.6,30,0.00,CLR,FEW,0.00,WeatherDisplay:10.37,2013-08-04 21:54:00,
2013-08-04 14:59:00,90.9,55.1,29.94,ESE,112,0.0,0.0,30,0.00,CLR,FEW,0.00,WeatherDisplay:10.37,2013-08-04 21:59:00,
2013-08-04 15:04:00,90.3,54.7,29.94,ESE,112,0.0,0.0,30,0.00,CLR,FEW,0.00,WeatherDisplay:10.37,2013-08-04 22:04:00,
2013-08-04 15:09:00,90.9,55.1,29.93,NW,315,10.4,10.4,30,0.00,CLR,FEW,0.00,WeatherDisplay:10.37,2013-08-04 22:09:00,
2013-08-04 15:14:00,90.7,54.1,29.93,NNW,338,8.1,8.1,29,0.00,CLR,FEW,0.00,WeatherDisplay:10.37,2013-08-04 22:14:00,
2013-08-04 15:19:00,90.7,55.9,29.93,NNW,338,9.2,9.2,31,0.00,CLR,FEW,0.00,WeatherDisplay:10.37,2013-08-04 22:19:00,
2013-08-04 15:24:00,90.3,54.7,29.92,NW,315,0.0,0.0,30,0.00,CLR,FEW,0.00,WeatherDisplay:10.37,2013-08-04 22:24:00,
2013-08-04 15:29:00,90.5,54.8,29.92,WNW,292,0.0,0.0,30,0.00,CLR,FEW,0.00,WeatherDisplay:10.37,2013-08-04 22:29:00,
2013-08-04 15:34:00,90.7,55.0,29.92,NNW,338,0.0,0.0,30,0.00,CLR,FEW,0.00,WeatherDisplay:10.37,2013-08-04 22:34:00,
2013-08-04 15:39:00,90.9,56.0,29.92,SE,135,0.0,0.0,31,0.00,CLR,FEW,0.00,WeatherDisplay:10.37,2013-08-04 22:39:00,
2013-08-04 15:44:00,90.9,56.0,29.92,SE,135,9.2,9.2,31,0.00,CLR,FEW,0.00,WeatherDisplay:10.37,2013-08-04 22:44:00,
2013-08-04 15:49:00,90.3,53.7,29.92,SSW,202,9.2,9.2,29,0.00,CLR,FEW,0.00,WeatherDisplay:10.37,2013-08-04 22:49:00,
2013-08-04 15:54:00,90.3,55.6,29.91,South,180,6.9,6.9,31,0.00,CLR,FEW,0.00,WeatherDisplay:10.37,2013-08-04 22:54:00,
2013-08-04 15:59:00,90.3,55.6,29.91,South,180,1.6,1.6,31,0.00,CLR,FEW,0.00,WeatherDisplay:10.37,2013-08-04 22:59:00,
2013-08-04 16:04:00,90.7,55.0,29.91,South,180,10.4,10.4,30,0.00,CLR,FEW,0.00,WeatherDisplay:10.37,2013-08-04 23:04:00,
2013-08-04 16:09:00,90.7,55.9,29.91,NW,315,1.1,1.1,31,0.00,CLR,FEW,0.00,WeatherDisplay:10.37,2013-08-04 23:09:00,
2013-08-04 16:14:00,91.0,55.3,29.91,NNW,338,5.1,5.1,30,0.00,CLR,FEW,0.00,WeatherDisplay:10.37,2013-08-04 23:14:00,
2013-08-04 16:19:00,91.2,55.5,29.91,WNW,292,1.1,1.1,30,0.00,CLR,FEW,0.00,WeatherDisplay:10.37,2013-08-04 23:19:00,
2013-08-04 16:24:00,91.2,55.5,29.91,WNW,292,0.0,0.0,30,0.00,CLR,FEW,0.00,WeatherDisplay:10.37,2013-08-04 23:24:00,
2013-08-04 16:29:00,91.2,54.5,29.91,NW,315,5.8,5.8,29,0.00,CLR,FEW,0.00,WeatherDisplay:10.37,2013-08-04 23:29:00,
2013-08-04 16:34:00,91.2,55.5,29.90,NW,315,13.0,13.0,30,0.00,CLR,FEW,0.00,WeatherDisplay:10.37,2013-08-04 23:34:00,
2013-08-04 16:39:00,91.2,53.6,29.90,NW,315,6.9,6.9,28,0.00,CLR,FEW,0.00,WeatherDisplay:10.37,2013-08-04 23:39:00,
2013-08-04 16:44:00,91.0,53.4,29.90,NNW,338,6.9,6.9,28,0.00,CLR,FEW,0.00,WeatherDisplay:10.37,2013-08-04 23:44:00,
2013-08-04 16:49:00,91.2,55.5,29.90,NNW,338,8.1,8.1,30,0.00,CLR,FEW,0.00,WeatherDisplay:10.37,2013-08-04 23:49:00,
2013-08-04 16:54:00,91.2,53.6,29.90,WNW,292,5.1,5.1,28,0.00,CLR,FEW,0.00,WeatherDisplay:10.37,2013-08-04 23:54:00,
2013-08-04 16:59:00,91.2,53.6,29.90,WNW,292,1.3,1.3,28,0.00,CLR,FEW,0.00,WeatherDisplay:10.37,2013-08-04 23:59:00,
2013-08-04 17:04:00,91.2,53.6,29.90,WNW,292,0.0,0.0,28,0.00,CLR,FEW,0.00,WeatherDisplay:10.37,2013-08-05 00:04:00,
2013-08-04 17:09:00,91.2,53.6,29.90,West,270,0.0,0.0,28,0.00,CLR,FEW,0.00,WeatherDisplay:10.37,2013-08-05 00:09:00,
2013-08-04 17:14:00,91.2,53.6,29.90,West,270,0.0,0.0,28,0.00,CLR,FEW,0.00,WeatherDisplay:10.37,2013-08-05 00:14:00,
2013-08-04 17:19:00,91.2,53.6,29.90,WNW,292,2.3,2.3,28,0.00,CLR,FEW,0.00,WeatherDisplay:10.37,2013-08-05 00:19:00,
2013-08-04 17:24:00,91.4,53.7,29.89,WSW,248,0.0,0.0,28,0.00,CLR,FEW,0.00,WeatherDisplay:10.37,2013-08-05 00:24:00,
2013-08-04 17:29:00,91.4,53.7,29.89,West,270,0.0,0.0,28,0.00,CLR,FEW,0.00,WeatherDisplay:10.37,2013-08-05 00:29:00,
2013-08-04 17:34:00,91.2,53.6,29.89,West,270,0.0,0.0,28,0.00,CLR,FEW,0.00,WeatherDisplay:10.37,2013-08-05 00:34:00,
2013-08-04 17:39:00,91.4,53.7,29.89,WNW,292,2.3,0.0,28,0.00,CLR,FEW,0.00,WeatherDisplay:10.37,2013-08-05 00:39:00,
2013-08-04 17:44:00,91.4,53.7,29.89,West,270,0.0,0.0,28,0.00,CLR,FEW,0.00,WeatherDisplay:10.37,2013-08-05 00:44:00,
2013-08-04 17:49:00,91.4,53.7,29.89,WNW,292,0.0,0.0,28,0.00,CLR,FEW,0.00,WeatherDisplay:10.37,2013-08-05 00:49:00,
2013-08-04 17:54:00,91.2,53.6,29.89,WNW,292,0.0,0.0,28,0.00,CLR,FEW,0.00,WeatherDisplay:10.37,2013-08-05 00:54:00,
2013-08-04 17:59:00,91.2,53.6,29.89,WNW,292,0.0,0.0,28,0.00,CLR,FEW,0.00,WeatherDisplay:10.37,2013-08-05 00:59:00,
2013-08-04 18:04:00,91.2,52.6,29.88,NNW,338,0.0,0.0,27,0.00,CLR,FEW,0.00,WeatherDisplay:10.37,2013-08-05 01:04:00,
2013-08-04 18:09:00,91.6,52.9,29.88,NW,315,0.0,0.0,27,0.00,CLR,FEW,0.00,WeatherDisplay:10.37,2013-08-05 01:09:00,
2013-08-04 18:14:00,91.6,52.9,29.88,NNW,338,0.0,0.0,27,0.00,CLR,FEW,0.00,WeatherDisplay:10.37,2013-08-05 01:14:00,
2013-08-04 18:19:00,91.8,53.0,29.88,NNW,338,0.0,0.0,27,0.00,CLR,FEW,0.00,WeatherDisplay:10.37,2013-08-05 01:19:00,
2013-08-04 18:24:00,91.8,53.0,29.88,NNW,338,2.3,2.3,27,0.00,CLR,FEW,0.00,WeatherDisplay:10.37,2013-08-05 01:24:00,
2013-08-04 18:29:00,91.9,53.2,29.88,NW,315,0.4,0.4,27,0.00,CLR,FEW,0.00,WeatherDisplay:10.37,2013-08-05 01:29:00,
2013-08-04 18:34:00,91.9,53.2,29.88,NNW,338,7.2,7.2,27,0.00,CLR,FEW,0.00,WeatherDisplay:10.37,2013-08-05 01:34:00,
2013-08-04 18:39:00,91.8,53.0,29.89,NNW,338,0.0,0.0,27,0.00,CLR,FEW,0.00,WeatherDisplay:10.37,2013-08-05 01:39:00,
2013-08-04 18:44:00,91.8,53.0,29.88,NNW,338,3.8,3.8,27,0.00,CLR,FEW,0.00,WeatherDisplay:10.37,2013-08-05 01:44:00,
2013-08-04 18:49:00,91.4,52.7,29.88,NNW,338,6.9,6.9,27,0.00,CLR,FEW,0.00,WeatherDisplay:10.37,2013-08-05 01:49:00,
2013-08-04 18:54:00,91.2,52.6,29.88,North,0,7.4,7.4,27,0.00,CLR,FEW,0.00,WeatherDisplay:10.37,2013-08-05 01:54:00,
2013-08-04 18:59:00,90.9,52.3,29.88,North,0,2.3,2.3,27,0.00,CLR,FEW,0.00,WeatherDisplay:10.37,2013-08-05 01:59:00,
2013-08-04 19:04:00,90.5,52.9,29.88,NNE,22,3.5,3.5,28,0.00,CLR,FEW,0.00,WeatherDisplay:10.37,2013-08-05 02:04:00,
2013-08-04 19:09:00,90.3,51.8,29.88,North,0,4.6,4.6,27,0.00,CLR,FEW,0.00,WeatherDisplay:10.37,2013-08-05 02:09:00,
2013-08-04 19:14:00,90.1,52.6,29.88,NNW,338,7.4,7.4,28,0.00,CLR,FEW,0.00,WeatherDisplay:10.37,2013-08-05 02:14:00,
2013-08-04 19:19:00,89.4,52.0,29.88,NNW,338,2.3,2.3,28,0.00,CLR,FEW,0.00,WeatherDisplay:10.37,2013-08-05 02:19:00,
2013-08-04 19:24:00,88.9,51.6,29.88,North,0,0.0,0.0,28,0.00,CLR,FEW,0.00,WeatherDisplay:10.37,2013-08-05 02:24:00,
2013-08-04 19:29:00,88.5,52.2,29.88,WNW,292,0.0,0.0,29,0.00,CLR,FEW,0.00,WeatherDisplay:10.37,2013-08-05 02:29:00,
2013-08-04 19:34:00,87.6,52.4,29.88,NW,315,0.0,0.0,30,0.00,CLR,FEW,0.00,WeatherDisplay:10.37,2013-08-05 02:34:00,
2013-08-04 19:39:00,87.3,52.0,29.88,WNW,292,0.0,0.0,30,0.00,CLR,FEW,0.00,WeatherDisplay:10.37,2013-08-05 02:39:00,
2013-08-04 19:44:00,86.4,53.0,29.89,WNW,292,0.0,0.0,32,0.00,CLR,FEW,0.00,WeatherDisplay:10.37,2013-08-05 02:44:00,
2013-08-04 19:49:00,85.1,53.6,29.89,WNW,292,0.0,0.0,34,0.00,CLR,FEW,0.00,WeatherDisplay:10.37,2013-08-05 02:49:00,
2013-08-04 19:54:00,84.4,53.7,29.89,WNW,292,0.0,0.0,35,0.00,CLR,FEW,0.00,WeatherDisplay:10.37,2013-08-05 02:54:00,
2013-08-04 19:59:00,83.5,53.7,29.89,WNW,292,0.0,0.0,36,0.00,CLR,FEW,0.00,WeatherDisplay:10.37,2013-08-05 02:59:00,
2013-08-04 20:04:00,82.0,53.2,29.89,WNW,292,0.0,0.0,37,0.00,CLR,FEW,0.00,WeatherDisplay:10.37,2013-08-05 03:04:00,
2013-08-04 20:09:00,81.3,54.0,29.89,WNW,292,0.0,0.0,39,0.00,CLR,FEW,0.00,WeatherDisplay:10.37,2013-08-05 03:09:00,
2013-08-04 20:14:00,80.4,54.6,29.89,WNW,292,0.0,0.0,41,0.00,CLR,FEW,0.00,WeatherDisplay:10.37,2013-08-05 03:14:00,
2013-08-04 20:19:00,79.7,54.6,29.89,WNW,292,0.0,0.0,42,0.00,CLR,FEW,0.00,WeatherDisplay:10.37,2013-08-05 03:19:00,
2013-08-04 20:24:00,79.2,54.1,29.90,WNW,292,0.0,0.0,42,0.00,CLR,FEW,0.00,WeatherDisplay:10.37,2013-08-05 03:24:00,
2013-08-04 20:29:00,78.4,54.7,29.89,WNW,292,0.0,0.0,44,0.00,CLR,FEW,0.00,WeatherDisplay:10.37,2013-08-05 03:29:00,
2013-08-04 20:34:00,77.7,54.1,29.90,WNW,292,0.0,0.0,44,0.00,CLR,FEW,0.00,WeatherDisplay:10.37,2013-08-05 03:34:00,
2013-08-04 20:39:00,77.2,54.2,29.90,WNW,292,0.0,0.0,45,0.00,CLR,FEW,0.00,WeatherDisplay:10.37,2013-08-05 03:39:00,
2013-08-04 20:44:00,76.5,54.1,29.90,WNW,292,0.0,0.0,46,0.00,CLR,FEW,0.00,WeatherDisplay:10.37,2013-08-05 03:44:00,
2013-08-04 20:49:00,75.9,54.2,29.90,WNW,292,0.0,0.0,47,0.00,CLR,FEW,0.00,WeatherDisplay:10.37,2013-08-05 03:49:00,
2013-08-04 20:54:00,75.4,54.3,29.90,WNW,292,0.0,0.0,48,0.00,CLR,FEW,0.00,WeatherDisplay:10.37,2013-08-05 03:54:00,
2013-08-04 20:59:00,75.0,54.0,29.90,WNW,292,0.0,0.0,48,0.00,CLR,FEW,0.00,WeatherDisplay:10.37,2013-08-05 03:59:00,
2013-08-04 21:01:00,75.0,54.0,29.90,WNW,292,0.0,0.0,48,0.00,CLR,FEW,0.00,WeatherDisplay:10.37,2013-08-05 04:01:00,
2013-08-04 21:02:00,74.5,53.5,29.90,WNW,292,0.0,0.0,48,0.00,CLR,FEW,0.00,WeatherDisplay:10.37,2013-08-05 04:02:00,
2013-08-04 21:07:00,74.1,53.7,29.91,WNW,292,0.0,0.0,49,0.00,CLR,FEW,0.00,WeatherDisplay:10.37,2013-08-05 04:07:00,
2013-08-04 21:12:00,73.4,54.2,29.90,WNW,292,0.0,0.0,51,0.00,CLR,FEW,0.00,WeatherDisplay:10.37,2013-08-05 04:12:00,
2013-08-04 21:17:00,73.0,54.9,29.91,WNW,292,0.0,0.0,53,0.00,CLR,FEW,0.00,WeatherDisplay:10.37,2013-08-05 04:17:00,
2013-08-04 21:22:00,72.7,55.1,29.91,WNW,292,0.0,0.0,54,0.00,CLR,FEW,0.00,WeatherDisplay:10.37,2013-08-05 04:22:00,
2013-08-04 21:27:00,72.3,55.7,29.91,SSW,202,0.0,0.0,56,0.00,CLR,FEW,0.00,WeatherDisplay:10.37,2013-08-05 04:27:00,
2013-08-04 21:32:00,72.0,55.4,29.91,SSW,202,0.0,0.0,56,0.00,CLR,FEW,0.00,WeatherDisplay:10.37,2013-08-05 04:32:00,
2013-08-04 21:37:00,71.2,54.7,29.91,South,180,0.0,0.0,56,0.00,CLR,FEW,0.00,WeatherDisplay:10.37,2013-08-05 04:37:00,
2013-08-04 21:42:00,70.9,54.9,29.92,South,180,0.0,0.0,57,0.00,CLR,FEW,0.00,WeatherDisplay:10.37,2013-08-05 04:42:00,
2013-08-04 21:47:00,70.5,54.5,29.92,South,180,0.0,0.0,57,0.00,CLR,FEW,0.00,WeatherDisplay:10.37,2013-08-05 04:47:00,
2013-08-04 21:52:00,70.3,54.9,29.92,South,180,0.0,0.0,58,0.00,CLR,FEW,0.00,WeatherDisplay:10.37,2013-08-05 04:52:00,
2013-08-04 21:57:00,70.0,55.0,29.92,South,180,0.0,0.0,59,0.00,CLR,FEW,0.00,WeatherDisplay:10.37,2013-08-05 04:57:00,
2013-08-04 22:02:00,69.6,54.7,29.92,South,180,0.0,0.0,59,0.00,CLR,FEW,0.00,WeatherDisplay:10.37,2013-08-05 05:02:00,
2013-08-04 22:07:00,69.4,54.5,29.92,South,180,0.0,0.0,59,0.00,CLR,FEW,0.00,WeatherDisplay:10.37,2013-08-05 05:07:00,
2013-08-04 22:12:00,68.7,54.3,29.92,South,180,0.0,0.0,60,0.00,CLR,FEW,0.00,WeatherDisplay:10.37,2013-08-05 05:12:00,
2013-08-04 22:17:00,68.5,54.1,29.92,South,180,0.0,0.0,60,0.00,CLR,FEW,0.00,WeatherDisplay:10.37,2013-08-05 05:17:00,
2013-08-04 22:22:00,68.4,53.9,29.92,South,180,0.0,0.0,60,0.00,CLR,FEW,0.00,WeatherDisplay:10.37,2013-08-05 05:22:00,
2013-08-04 22:27:00,67.8,53.9,29.92,South,180,0.0,0.0,61,0.00,CLR,FEW,0.00,WeatherDisplay:10.37,2013-08-05 05:27:00,
2013-08-04 22:32:00,67.5,54.0,29.92,South,180,0.0,0.0,62,0.00,CLR,FEW,0.00,WeatherDisplay:10.37,2013-08-05 05:32:00,
2013-08-04 22:37:00,67.3,53.8,29.93,South,180,0.0,0.0,62,0.00,CLR,FEW,0.00,WeatherDisplay:10.37,2013-08-05 05:37:00,
2013-08-04 22:42:00,66.9,53.5,29.93,South,180,0.0,0.0,62,0.00,CLR,FEW,0.00,WeatherDisplay:10.37,2013-08-05 05:42:00,
2013-08-04 22:47:00,66.9,53.9,29.93,South,180,0.0,0.0,63,0.00,CLR,FEW,0.00,WeatherDisplay:10.37,2013-08-05 05:47:00,
2013-08-04 22:52:00,66.9,53.9,29.93,South,180,0.0,0.0,63,0.00,CLR,FEW,0.00,WeatherDisplay:10.37,2013-08-05 05:52:00,
2013-08-04 22:57:00,66.6,54.0,29.93,South,180,0.0,0.0,64,0.00,CLR,FEW,0.00,WeatherDisplay:10.37,2013-08-05 05:57:00,
2013-08-04 23:02:00,66.4,54.3,29.93,South,180,0.0,0.0,65,0.00,CLR,FEW,0.00,WeatherDisplay:10.37,2013-08-05 06:02:00,
2013-08-04 23:07:00,66.2,54.1,29.92,South,180,0.0,0.0,65,0.00,CLR,FEW,0.00,WeatherDisplay:10.37,2013-08-05 06:07:00,
2013-08-04 23:12:00,65.8,53.7,29.93,South,180,0.0,0.0,65,0.00,CLR,FEW,0.00,WeatherDisplay:10.37,2013-08-05 06:12:00,
2013-08-04 23:17:00,65.5,53.8,29.93,South,180,0.0,0.0,66,0.00,CLR,FEW,0.00,WeatherDisplay:10.37,2013-08-05 06:17:00,
2013-08-04 23:22:00,65.1,53.9,29.93,South,180,0.0,0.0,67,0.00,CLR,FEW,0.00,WeatherDisplay:10.37,2013-08-05 06:22:00,
2013-08-04 23:27:00,64.6,53.4,29.93,South,180,0.0,0.0,67,0.00,CLR,FEW,0.00,WeatherDisplay:10.37,2013-08-05 06:27:00,
2013-08-04 23:32:00,64.6,53.4,29.93,South,180,0.0,0.0,67,0.00,CLR,FEW,0.00,WeatherDisplay:10.37,2013-08-05 06:32:00,
2013-08-04 23:37:00,64.2,53.0,29.94,South,180,0.0,0.0,67,0.00,CLR,FEW,0.00,WeatherDisplay:10.37,2013-08-05 06:37:00,
2013-08-04 23:42:00,64.0,52.9,29.94,South,180,0.0,0.0,67,0.00,CLR,FEW,0.00,WeatherDisplay:10.37,2013-08-05 06:42:00,
2013-08-04 23:47:00,63.7,52.5,29.94,South,180,0.0,0.0,67,0.00,CLR,FEW,0.00,WeatherDisplay:10.37,2013-08-05 06:47:00,
2013-08-04 23:52:00,63.5,52.3,29.94,South,180,0.0,0.0,67,0.00,CLR,FEW,0.00,WeatherDisplay:10.37,2013-08-05 06:52:00,
2013-08-04 23:57:00,63.3,52.6,29.94,South,180,0.0,0.0,68,0.00,CLR,FEW,0.00,WeatherDisplay:10.37,2013-08-05 06:57:00,